Time;durP1;ratioP1;P1;durP2;ratioP2;P2;SDS_P1;SDS_P2;PMS_P1;PMS_P2;Temp;Humidity;BMP_temperature;BMP_pressure;BME280_temperature;BME280_humidity;BME280_pressure;Samples;Min_cycle;Max_cycle;Signal;HPM_P1;HPM_P2
2023/05/09 00:00:30;;;;;;;18.30;9.45;;;4.90;68.60;;;;;;5107179;28;20098;-85
2023/05/09 00:02:56;;;;;;;22.48;9.35;;;4.90;68.90;;;;;;5121260;28;20019;-85
2023/05/09 00:05:22;;;;;;;18.42;9.27;;;4.80;69.20;;;;;;5101364;28;20024;-86
2023/05/09 00:07:48;;;;;;;19.40;9.02;;;4.80;69.20;;;;;;5106002;28;20024;-86
2023/05/09 00:10:14;;;;;;;15.15;9.30;;;4.80;69.10;;;;;;5090927;28;20410;-86
2023/05/09 00:12:42;;;;;;;31.40;10.85;;;4.80;69.20;;;;;;5092390;28;20050;-87
2023/05/09 00:15:09;;;;;;;22.52;9.82;;;4.80;69.20;;;;;;5106908;28;20031;-87
2023/05/09 00:17:38;;;;;;;19.00;9.30;;;4.80;69.40;;;;;;5113655;28;20047;-86
2023/05/09 00:20:10;;;;;;;17.30;9.00;;;4.80;69.30;;;;;;5102804;28;20442;-87
2023/05/09 00:22:36;;;;;;;23.20;10.15;;;4.70;69.30;;;;;;5116646;28;20028;-86
2023/05/09 00:25:02;;;;;;;24.77;10.00;;;4.70;69.20;;;;;;5099803;28;20097;-86
2023/05/09 00:27:29;;;;;;;33.75;9.95;;;4.70;69.30;;;;;;5103667;28;20024;-86
2023/05/09 00:29:55;;;;;;;18.02;9.85;;;4.70;69.70;;;;;;5122102;28;20361;-86
2023/05/09 00:32:21;;;;;;;26.65;10.02;;;4.70;69.90;;;;;;5122355;28;20036;-85
2023/05/09 00:34:49;;;;;;;21.92;10.23;;;4.70;70.10;;;;;;5093914;28;20444;-86
2023/05/09 00:37:17;;;;;;;24.42;11.07;;;4.70;70.20;;;;;;5081902;28;20023;-85
2023/05/09 00:39:42;;;;;;;;;;;4.70;70.20;;;;;;5098813;28;20065;-86
2023/05/09 00:42:08;;;;;;;19.23;9.75;;;4.60;69.70;;;;;;5107595;28;20356;-86
2023/05/09 00:44:35;;;;;;;23.00;10.68;;;4.50;70.00;;;;;;5103946;28;20390;-86
2023/05/09 00:47:01;;;;;;;35.97;11.15;;;4.50;70.30;;;;;;5111572;28;20381;-84
2023/05/09 00:49:27;;;;;;;18.42;9.75;;;4.50;70.40;;;;;;5111901;28;20121;-86
2023/05/09 00:51:54;;;;;;;24.52;11.02;;;4.60;70.50;;;;;;5110163;28;20382;-87
2023/05/09 00:54:20;;;;;;;25.17;10.02;;;4.60;70.50;;;;;;5086531;28;20040;-86
2023/05/09 00:56:46;;;;;;;20.65;10.70;;;4.60;70.50;;;;;;5079152;28;20419;-86
2023/05/09 00:59:12;;;;;;;24.13;9.88;;;4.60;70.70;;;;;;5105712;28;20024;-86
2023/05/09 01:01:38;;;;;;;23.63;10.05;;;4.60;70.80;;;;;;5104776;28;20083;-86
2023/05/09 01:04:04;;;;;;;27.52;11.00;;;4.50;70.80;;;;;;5096221;28;20055;-86
2023/05/09 01:06:40;;;;;;;21.35;10.90;;;4.60;70.90;;;;;;5111520;28;20027;-85
2023/05/09 01:09:15;;;;;;;26.58;11.35;;;4.50;71.00;;;;;;5102026;28;20426;-87
2023/05/09 01:12:09;;;;;;;23.67;11.05;;;4.50;71.30;;;;;;5096427;28;20023;-87
2023/05/09 01:15:10;;;;;;;17.00;9.48;;;4.50;71.70;;;;;;5078197;28;20085;-86
2023/05/09 01:17:54;;;;;;;20.33;9.43;;;4.50;71.70;;;;;;5078108;28;20051;-86
2023/05/09 01:20:35;;;;;;;15.05;9.68;;;4.50;71.90;;;;;;5108339;28;20031;-86
2023/05/09 01:23:22;;;;;;;26.90;11.65;;;4.40;71.90;;;;;;5108970;28;20028;-85
2023/05/09 01:26:02;;;;;;;23.05;12.27;;;4.40;72.20;;;;;;5087981;28;20020;-86
2023/05/09 01:28:43;;;;;;;23.50;11.63;;;4.40;72.00;;;;;;5133455;28;20024;-85
2023/05/09 01:31:09;;;;;;;20.23;11.45;;;4.40;72.60;;;;;;5117006;28;20035;-87
2023/05/09 01:33:41;;;;;;;26.15;11.52;;;4.50;72.40;;;;;;5110335;28;20035;-87
2023/05/09 01:36:15;;;;;;;23.20;11.80;;;4.50;72.10;;;;;;5109071;28;20163;-86
2023/05/09 01:38:43;;;;;;;22.50;11.25;;;4.60;72.10;;;;;;5111255;28;20039;-84
2023/05/09 01:41:11;;;;;;;23.50;11.07;;;4.50;72.20;;;;;;5098866;28;20020;-84
2023/05/09 01:43:37;;;;;;;;;;;4.50;72.40;;;;;;5096634;28;20015;-86
2023/05/09 01:46:05;;;;;;;29.45;12.73;;;4.50;72.00;;;;;;5111012;28;19888;-86
2023/05/09 01:48:35;;;;;;;24.95;11.68;;;4.40;72.60;;;;;;5097477;28;20024;-86
2023/05/09 01:51:02;;;;;;;22.08;11.98;;;4.40;73.10;;;;;;5110402;28;20019;-87
2023/05/09 01:53:28;;;;;;;19.15;10.68;;;4.40;73.50;;;;;;5098887;28;20028;-87
2023/05/09 01:55:56;;;;;;;27.73;11.07;;;4.40;73.80;;;;;;5112526;28;20035;-87
2023/05/09 01:58:22;;;;;;;;;;;4.40;74.10;;;;;;5091070;28;20030;-85
2023/05/09 02:00:50;;;;;;;19.73;11.93;;;4.40;73.40;;;;;;5107155;28;20024;-85
2023/05/09 02:03:16;;;;;;;23.65;12.20;;;4.40;73.70;;;;;;5110292;28;20092;-85
2023/05/09 02:05:43;;;;;;;26.85;10.60;;;4.40;74.10;;;;;;5111734;28;20024;-86
2023/05/09 02:08:09;;;;;;;27.17;10.37;;;4.40;74.20;;;;;;5109883;28;20032;-87
2023/05/09 02:10:36;;;;;;;27.27;13.25;;;4.50;74.20;;;;;;5099903;28;20102;-88
2023/05/09 02:13:03;;;;;;;23.50;12.60;;;4.60;74.20;;;;;;5095832;28;20032;-87
2023/05/09 02:15:29;;;;;;;24.48;12.20;;;4.60;74.10;;;;;;5094892;28;20052;-87
2023/05/09 02:17:55;;;;;;;27.73;12.63;;;4.60;74.10;;;;;;5095045;28;20017;-87
2023/05/09 02:20:21;;;;;;;24.48;12.02;;;4.70;74.10;;;;;;5082117;28;20052;-86
2023/05/09 02:22:47;;;;;;;22.20;11.93;;;4.70;74.10;;;;;;5093784;28;20027;-84
2023/05/09 02:25:17;;;;;;;20.67;13.60;;;4.80;74.10;;;;;;5088083;28;20024;-86
2023/05/09 02:27:45;;;;;;;28.02;12.02;;;4.80;74.10;;;;;;5081459;28;20091;-85
2023/05/09 02:30:16;;;;;;;22.20;13.20;;;4.90;74.10;;;;;;5079393;28;20507;-86
2023/05/09 02:32:44;;;;;;;29.38;12.50;;;4.90;74.10;;;;;;5096925;28;20040;-87
2023/05/09 02:35:12;;;;;;;30.70;13.80;;;5.00;73.90;;;;;;5107161;28;20021;-86
2023/05/09 02:37:37;;;;;;;;;;;5.00;73.60;;;;;;5087336;28;20118;-87
2023/05/09 02:40:08;;;;;;;21.10;12.07;;;5.10;73.10;;;;;;5103820;28;19930;-86
2023/05/09 02:42:33;;;;;;;34.17;13.98;;;5.20;72.90;;;;;;5102023;28;20020;-86
2023/05/09 02:44:59;;;;;;;26.23;13.50;;;5.30;72.60;;;;;;5108273;28;20079;-86
2023/05/09 02:47:25;;;;;;;21.17;12.52;;;5.40;72.40;;;;;;5095075;28;20020;-87
2023/05/09 02:49:51;;;;;;;21.75;12.98;;;5.50;72.30;;;;;;5079830;28;20024;-86
2023/05/09 02:52:17;;;;;;;23.02;13.10;;;5.60;71.70;;;;;;5089562;28;20031;-85
2023/05/09 02:54:44;;;;;;;24.95;14.13;;;5.70;71.40;;;;;;5092853;28;20393;-86
2023/05/09 02:57:09;;;;;;;26.58;14.13;;;5.80;70.70;;;;;;5113242;28;20072;-85
2023/05/09 02:59:35;;;;;;;24.60;13.65;;;5.80;70.40;;;;;;5116517;28;20040;-84
2023/05/09 03:02:02;;;;;;;30.13;14.15;;;5.90;70.20;;;;;;5109041;28;20032;-84
2023/05/09 03:04:29;;;;;;;24.10;14.13;;;5.90;70.10;;;;;;5094631;28;20023;-86
2023/05/09 03:06:55;;;;;;;30.27;15.30;;;6.00;70.30;;;;;;5105497;28;20028;-85
2023/05/09 03:09:21;;;;;;;21.80;13.40;;;6.00;70.10;;;;;;5099883;28;20038;-85
2023/05/09 03:11:46;;;;;;;25.58;15.13;;;6.10;70.20;;;;;;5107566;28;20044;-85
2023/05/09 03:14:13;;;;;;;25.95;14.05;;;6.20;70.10;;;;;;5122862;28;20045;-85
2023/05/09 03:16:39;;;;;;;20.27;12.27;;;6.30;70.20;;;;;;5118784;28;20051;-86
2023/05/09 03:19:05;;;;;;;23.75;13.95;;;6.30;69.90;;;;;;5095735;28;20055;-85
2023/05/09 03:21:31;;;;;;;22.67;14.85;;;6.40;69.60;;;;;;5095873;28;20084;-87
2023/05/09 03:23:57;;;;;;;24.98;13.85;;;6.40;69.40;;;;;;5080687;28;20028;-86
2023/05/09 03:26:25;;;;;;;24.42;14.70;;;6.50;69.40;;;;;;5085422;28;20058;-85
2023/05/09 03:28:51;;;;;;;25.60;13.57;;;6.60;69.40;;;;;;5093568;28;20516;-85
2023/05/09 03:31:17;;;;;;;27.30;13.95;;;6.80;69.10;;;;;;5098994;28;20019;-85
2023/05/09 03:33:42;;;;;;;26.17;13.35;;;6.90;68.70;;;;;;5080202;28;20028;-86
2023/05/09 03:36:08;;;;;;;23.88;13.77;;;7.00;68.30;;;;;;5110090;28;20036;-87
2023/05/09 03:38:35;;;;;;;26.55;14.48;;;7.10;68.10;;;;;;5110975;28;20028;-87
2023/05/09 03:41:01;;;;;;;23.97;13.53;;;7.20;68.00;;;;;;5107306;28;20012;-84
2023/05/09 03:43:27;;;;;;;27.92;13.90;;;7.30;67.80;;;;;;5079277;28;20059;-85
2023/05/09 03:45:53;;;;;;;28.90;14.88;;;7.40;67.20;;;;;;5076816;28;20020;-86
2023/05/09 03:48:19;;;;;;;25.50;15.60;;;7.50;66.50;;;;;;5077675;28;20039;-85
2023/05/09 03:50:44;;;;;;;21.95;14.30;;;7.60;65.70;;;;;;5101796;28;20035;-86
2023/05/09 03:53:10;;;;;;;26.30;14.88;;;7.70;65.00;;;;;;5089786;28;20131;-84
2023/05/09 03:55:36;;;;;;;31.90;15.25;;;7.70;64.70;;;;;;5120577;28;20020;-85
2023/05/09 03:58:02;;;;;;;22.48;15.55;;;7.70;64.30;;;;;;5101903;28;20032;-87
2023/05/09 04:00:28;;;;;;;26.75;14.95;;;7.90;64.10;;;;;;5112497;28;20044;-85
2023/05/09 04:02:54;;;;;;;28.95;15.27;;;7.90;64.10;;;;;;5098779;28;20077;-85
2023/05/09 04:05:20;;;;;;;25.75;16.38;;;7.90;64.00;;;;;;5093278;28;20066;-86
2023/05/09 04:07:46;;;;;;;25.23;14.70;;;8.00;63.90;;;;;;5111886;28;20028;-85
2023/05/09 04:10:12;;;;;;;28.15;16.70;;;8.10;63.60;;;;;;5107099;28;20020;-86
2023/05/09 04:12:38;;;;;;;25.80;16.50;;;8.10;63.30;;;;;;5087290;28;20035;-86
2023/05/09 04:15:06;;;;;;;22.60;16.20;;;8.20;63.10;;;;;;5105844;28;20481;-86
2023/05/09 04:17:32;;;;;;;31.85;16.88;;;8.30;62.70;;;;;;5097743;28;20454;-88
2023/05/09 04:19:58;;;;;;;24.98;15.38;;;8.30;62.40;;;;;;5099280;28;20015;-88
2023/05/09 04:22:24;;;;;;;25.63;16.00;;;8.40;62.40;;;;;;5111022;28;20032;-87
2023/05/09 04:24:50;;;;;;;21.83;16.15;;;8.50;62.10;;;;;;5091095;28;20031;-88
2023/05/09 04:27:15;;;;;;;23.00;16.60;;;8.60;61.50;;;;;;5117223;28;20024;-88
2023/05/09 04:29:42;;;;;;;24.00;16.85;;;8.70;61.30;;;;;;5121366;28;20043;-87
2023/05/09 04:32:07;;;;;;;29.27;17.13;;;8.80;61.30;;;;;;5096193;28;20066;-88
2023/05/09 04:34:33;;;;;;;24.77;15.88;;;8.90;60.90;;;;;;5082756;28;20032;-87
2023/05/09 04:37:00;;;;;;;34.08;18.30;;;9.00;60.70;;;;;;5106013;28;20020;-89
2023/05/09 04:39:25;;;;;;;37.28;17.60;;;9.10;60.50;;;;;;5117464;28;20023;-87
2023/05/09 04:41:51;;;;;;;24.17;17.50;;;9.20;60.20;;;;;;5115673;28;20045;-86
2023/05/09 04:44:17;;;;;;;23.85;15.35;;;9.30;59.80;;;;;;5117372;28;20028;-86
2023/05/09 04:46:43;;;;;;;27.45;17.85;;;9.50;59.60;;;;;;5090160;28;20028;-87
2023/05/09 04:49:09;;;;;;;26.08;17.05;;;9.70;59.60;;;;;;5102641;28;20020;-86
2023/05/09 04:51:35;;;;;;;33.95;20.08;;;10.30;58.70;;;;;;5103016;28;20061;-87
2023/05/09 04:54:01;;;;;;;35.35;20.42;;;11.20;56.60;;;;;;5088264;28;20429;-88
2023/05/09 04:56:27;;;;;;;29.67;19.80;;;12.20;54.40;;;;;;5087815;28;20059;-88
2023/05/09 04:58:53;;;;;;;29.80;19.45;;;13.20;52.50;;;;;;5100345;28;20043;-87
2023/05/09 05:01:19;;;;;;;21.10;16.83;;;14.00;50.20;;;;;;5111694;28;20404;-88
2023/05/09 05:03:44;;;;;;;27.20;17.50;;;14.90;48.60;;;;;;5085123;28;20380;-88
2023/05/09 05:06:11;;;;;;;19.70;14.95;;;15.50;47.00;;;;;;5091597;28;20034;-87
2023/05/09 05:08:36;;;;;;;27.23;16.42;;;16.30;44.80;;;;;;5081578;28;20066;-88
2023/05/09 05:11:02;;;;;;;23.50;16.42;;;17.00;43.00;;;;;;5088485;28;20020;-88
2023/05/09 05:13:28;;;;;;;20.02;13.05;;;17.70;41.90;;;;;;5090724;28;20489;-88
2023/05/09 05:15:55;;;;;;;13.52;8.55;;;18.40;40.20;;;;;;5082816;28;20031;-89
2023/05/09 05:18:21;;;;;;;9.18;6.32;;;18.90;37.60;;;;;;5109957;28;20024;-91
2023/05/09 05:20:47;;;;;;;10.68;5.75;;;19.20;35.90;;;;;;5099906;28;20087;-89
2023/05/09 05:23:13;;;;;;;9.38;5.47;;;19.30;34.40;;;;;;5124623;28;20029;-89
2023/05/09 05:25:39;;;;;;;8.02;4.78;;;19.60;34.30;;;;;;5111739;28;20029;-89
2023/05/09 05:28:05;;;;;;;7.68;4.10;;;20.20;33.80;;;;;;5086183;28;20054;-89
2023/05/09 05:30:31;;;;;;;10.60;4.82;;;20.80;32.60;;;;;;5114416;28;20024;-89
2023/05/09 05:32:57;;;;;;;5.93;4.22;;;21.40;32.40;;;;;;5082623;28;20035;-89
2023/05/09 05:35:23;;;;;;;6.78;3.85;;;21.70;31.10;;;;;;5088173;28;20024;-90
2023/05/09 05:37:49;;;;;;;6.00;3.80;;;21.80;30.40;;;;;;5115030;28;20016;-90
2023/05/09 05:40:15;;;;;;;6.43;3.47;;;21.90;30.00;;;;;;5117530;28;20035;-89
2023/05/09 05:42:43;;;;;;;7.35;4.78;;;22.20;30.10;;;;;;5095630;28;20016;-91
2023/05/09 05:45:09;;;;;;;6.80;4.40;;;23.00;29.70;;;;;;5095103;28;20107;-91
2023/05/09 05:47:36;;;;;;;7.30;3.90;;;23.50;29.30;;;;;;5094335;28;20020;-90
2023/05/09 05:50:03;;;;;;;4.13;3.65;;;23.00;29.10;;;;;;5098043;28;20050;-91
2023/05/09 05:52:29;;;;;;;5.88;4.10;;;22.80;29.20;;;;;;5104096;28;20036;-90
2023/05/09 05:54:55;;;;;;;5.45;3.85;;;23.40;29.30;;;;;;5099772;28;20123;-90
2023/05/09 05:57:21;;;;;;;4.88;3.42;;;24.50;28.60;;;;;;5082877;28;20062;-90
2023/05/09 05:59:48;;;;;;;6.32;3.08;;;25.30;27.70;;;;;;5094702;28;20085;-91
2023/05/09 06:02:15;;;;;;;4.13;2.55;;;25.80;27.50;;;;;;5086713;28;20025;-90
2023/05/09 06:04:41;;;;;;;4.72;2.92;;;26.00;26.80;;;;;;5078041;28;20052;-91
2023/05/09 06:07:08;;;;;;;;;;;25.60;26.70;;;;;;5090827;28;20036;-90
2023/05/09 06:09:34;;;;;;;5.03;2.80;;;25.60;27.40;;;;;;5085059;28;19908;-88
2023/05/09 06:12:00;;;;;;;4.25;2.95;;;25.60;27.40;;;;;;5080295;28;20047;-87
2023/05/09 06:14:26;;;;;;;4.28;2.35;;;26.30;26.60;;;;;;5088143;28;20033;-88
2023/05/09 06:16:52;;;;;;;3.05;2.10;;;26.50;26.30;;;;;;5086532;28;20024;-86
2023/05/09 06:19:18;;;;;;;12.60;2.50;;;26.60;26.40;;;;;;5088969;28;20435;-85
2023/05/09 06:21:45;;;;;;;4.15;2.33;;;26.70;26.10;;;;;;5085291;28;20021;-86
2023/05/09 06:24:10;;;;;;;2.38;2.17;;;26.20;26.00;;;;;;5080212;28;20034;-89
2023/05/09 06:26:37;;;;;;;3.60;2.05;;;25.80;26.20;;;;;;5076748;28;20017;-90
2023/05/09 06:29:04;;;;;;;2.80;2.17;;;26.20;26.50;;;;;;5078529;28;20486;-90
2023/05/09 06:31:30;;;;;;;10.70;3.08;;;26.90;26.00;;;;;;5082959;28;20063;-91
2023/05/09 06:33:56;;;;;;;5.80;2.03;;;28.10;25.80;;;;;;5084312;28;20040;-91
2023/05/09 06:36:22;;;;;;;4.53;1.65;;;29.00;25.30;;;;;;5085208;28;20021;-91
2023/05/09 06:38:48;;;;;;;1.63;1.17;;;30.00;25.10;;;;;;5088585;28;20098;-90
2023/05/09 06:41:17;;;;;;;9.07;2.28;;;30.80;24.50;;;;;;5092634;28;20518;-91
2023/05/09 06:43:43;;;;;;;3.65;1.95;;;31.10;24.40;;;;;;5076236;28;20024;-88
2023/05/09 06:46:09;;;;;;;9.05;3.20;;;31.30;24.20;;;;;;5087412;28;20043;-88
2023/05/09 06:48:35;;;;;;;3.75;1.60;;;31.50;24.30;;;;;;5083143;28;20545;-86
2023/05/09 06:51:00;;;;;;;1.52;1.30;;;31.90;24.00;;;;;;5073721;28;20029;-86
2023/05/09 06:53:26;;;;;;;2.67;1.47;;;32.30;23.80;;;;;;5076751;28;20370;-87
2023/05/09 06:55:52;;;;;;;1.00;0.90;;;31.30;23.70;;;;;;5081153;28;20028;-86
2023/05/09 06:58:18;;;;;;;3.20;1.30;;;30.70;23.50;;;;;;5084308;28;20052;-86
2023/05/09 07:00:47;;;;;;;3.17;1.73;;;30.50;23.80;;;;;;5100309;28;20489;-86
2023/05/09 07:03:16;;;;;;;4.35;2.42;;;31.10;24.00;;;;;;5100623;28;20059;-88
2023/05/09 07:05:42;;;;;;;3.03;1.48;;;32.00;23.70;;;;;;5123671;28;20027;-87
2023/05/09 07:08:08;;;;;;;3.17;1.80;;;31.40;23.10;;;;;;5121988;28;20555;-88
2023/05/09 07:10:34;;;;;;;3.43;1.70;;;31.00;23.30;;;;;;5122978;28;20044;-85
2023/05/09 07:13:00;;;;;;;2.47;1.52;;;31.10;23.50;;;;;;5097287;28;20027;-85
2023/05/09 07:15:26;;;;;;;4.70;1.70;;;31.20;23.50;;;;;;5110268;28;20053;-85
2023/05/09 07:17:52;;;;;;;3.10;1.53;;;31.30;23.50;;;;;;5094508;28;20173;-85
2023/05/09 07:20:21;;;;;;;4.73;1.67;;;32.50;23.50;;;;;;5104261;28;20020;-89
2023/05/09 07:22:47;;;;;;;3.92;1.58;;;33.30;22.90;;;;;;5083715;28;20024;-88
2023/05/09 07:25:16;;;;;;;1.90;1.27;;;33.20;22.60;;;;;;5082747;28;20023;-89
2023/05/09 07:27:45;;;;;;;1.77;1.40;;;33.30;22.70;;;;;;5093194;28;20035;-85
2023/05/09 07:30:15;;;;;;;2.15;1.00;;;33.30;22.70;;;;;;5089512;28;20024;-89
2023/05/09 07:32:43;;;;;;;2.63;1.60;;;34.20;22.60;;;;;;5120715;28;20042;-89
2023/05/09 07:35:09;;;;;;;4.15;2.92;;;32.60;22.10;;;;;;5099923;28;20468;-90
2023/05/09 07:37:35;;;;;;;5.10;1.40;;;31.30;22.80;;;;;;5121097;28;20049;-90
2023/05/09 07:40:02;;;;;;;2.13;1.63;;;31.20;23.20;;;;;;5105788;28;20031;-89
2023/05/09 07:42:29;;;;;;;2.38;1.67;;;31.10;22.90;;;;;;5107000;28;20104;-90
2023/05/09 07:44:55;;;;;;;3.30;2.20;;;30.60;23.00;;;;;;5093893;28;20020;-89
2023/05/09 07:47:21;;;;;;;2.17;1.70;;;29.00;23.10;;;;;;5107187;28;20027;-88
2023/05/09 07:49:50;;;;;;;3.00;1.63;;;26.10;23.90;;;;;;5100821;28;20024;-88
2023/05/09 07:52:16;;;;;;;3.13;1.77;;;23.80;25.00;;;;;;5086313;28;20119;-87
2023/05/09 07:54:43;;;;;;;2.70;2.13;;;23.00;26.10;;;;;;5104371;28;20024;-94
2023/05/09 07:57:11;;;;;;;5.72;2.13;;;24.00;26.10;;;;;;5085456;28;20066;-93
2023/05/09 07:59:38;;;;;;;2.80;1.92;;;25.20;25.40;;;;;;5113989;28;20039;-90
2023/05/09 08:02:04;;;;;;;;;;;26.40;25.00;;;;;;5103786;28;20042;-88
2023/05/09 08:04:30;;;;;;;2.97;1.73;;;28.00;25.30;;;;;;5091932;28;19908;-90
2023/05/09 08:06:56;;;;;;;4.30;1.97;;;29.80;24.10;;;;;;5107994;28;20042;-90
2023/05/09 08:09:22;;;;;;;2.53;1.50;;;30.50;23.40;;;;;;5111314;28;20034;-91
2023/05/09 08:11:48;;;;;;;3.07;2.13;;;31.90;23.10;;;;;;5090065;28;20481;-92
2023/05/09 08:14:15;;;;;;;3.57;1.73;;;32.40;22.60;;;;;;5083214;28;20044;-92
2023/05/09 08:16:42;;;;;;;2.35;1.63;;;32.20;22.70;;;;;;5096726;28;20024;-85
2023/05/09 08:19:09;;;;;;;4.65;2.03;;;32.20;22.30;;;;;;5094504;28;20030;-88
2023/05/09 08:21:35;;;;;;;4.60;1.95;;;29.80;22.40;;;;;;5103296;28;20069;-89
2023/05/09 08:24:01;;;;;;;3.90;2.22;;;26.90;23.30;;;;;;5081679;28;20031;-87
2023/05/09 08:26:30;;;;;;;2.83;2.08;;;24.60;24.60;;;;;;5111472;28;20076;-93
2023/05/09 08:28:56;;;;;;;3.08;2.10;;;23.00;25.50;;;;;;5066662;28;20051;-88
2023/05/09 08:31:22;;;;;;;3.08;2.22;;;21.50;26.50;;;;;;5087056;28;20009;-90
2023/05/09 08:33:48;;;;;;;3.28;2.10;;;22.20;27.00;;;;;;5070214;28;20054;-91
2023/05/09 08:36:14;;;;;;;2.17;1.65;;;23.70;25.70;;;;;;5066910;28;20029;-90
2023/05/09 08:38:40;;;;;;;4.63;2.17;;;24.30;25.90;;;;;;5052912;28;20052;-88
2023/05/09 08:41:06;;;;;;;2.30;1.70;;;25.70;25.20;;;;;;5088392;28;20128;-87
2023/05/09 08:43:33;;;;;;;4.25;2.28;;;28.00;24.60;;;;;;5048384;28;20033;-89
2023/05/09 08:46:06;;;;;;;3.92;2.53;;;29.90;24.10;;;;;;5069498;28;20017;-87
2023/05/09 08:48:36;;;;;;;4.10;2.28;;;30.80;23.30;;;;;;5059643;28;20029;-88
2023/05/09 08:51:06;;;;;;;4.03;2.13;;;29.30;23.00;;;;;;5060386;28;20056;-87
2023/05/09 08:53:33;;;;;;;2.50;1.77;;;26.90;23.60;;;;;;5056412;28;20037;-91
2023/05/09 08:56:02;;;;;;;5.97;2.85;;;25.00;24.50;;;;;;5045360;28;20017;-88
2023/05/09 08:58:33;;;;;;;3.55;2.22;;;25.60;25.10;;;;;;5035160;28;20463;-89
2023/05/09 09:01:00;;;;;;;2.63;1.58;;;26.90;24.50;;;;;;5036546;28;20119;-90
2023/05/09 09:03:26;;;;;;;6.18;2.10;;;27.00;23.90;;;;;;5083533;28;20035;-91
2023/05/09 09:05:54;;;;;;;3.10;1.88;;;26.00;23.70;;;;;;5074254;28;20029;-89
2023/05/09 09:08:21;;;;;;;2.17;1.63;;;25.00;24.50;;;;;;5066293;28;20490;-91
2023/05/09 09:10:47;;;;;;;3.65;1.58;;;25.40;24.60;;;;;;5062511;28;20087;-91
2023/05/09 09:13:14;;;;;;;3.73;1.87;;;27.00;24.20;;;;;;5064065;28;20044;-88
2023/05/09 09:15:42;;;;;;;;;;;29.10;23.70;;;;;;5060502;28;20028;-90
2023/05/09 09:18:11;;;;;;;5.15;1.80;;;29.80;24.10;;;;;;5056426;28;19977;-88
2023/05/09 09:20:43;;;;;;;3.00;2.03;;;30.80;23.30;;;;;;5058254;28;20029;-86
2023/05/09 09:23:10;;;;;;;4.20;1.52;;;32.40;23.00;;;;;;5059793;28;20489;-87
2023/05/09 09:25:36;;;;;;;2.88;1.70;;;32.40;22.30;;;;;;5073514;28;20136;-89
2023/05/09 09:28:03;;;;;;;2.90;1.95;;;31.20;22.60;;;;;;5042170;28;20064;-81
2023/05/09 09:30:29;;;;;;;3.67;1.60;;;29.40;22.60;;;;;;5063199;28;20482;-82
2023/05/09 09:32:57;;;;;;;3.65;1.50;;;27.70;22.90;;;;;;5070667;28;20045;-83
2023/05/09 09:35:23;;;;;;;6.20;2.60;;;26.20;23.60;;;;;;5065119;28;20036;-81
2023/05/09 09:38:00;;;;;;;5.10;3.58;;;24.80;24.20;;;;;;5065272;28;20111;-81
2023/05/09 09:40:26;;;;;;;4.38;2.38;;;23.50;25.10;;;;;;5058871;28;20082;-82
2023/05/09 09:42:55;;;;;;;4.60;2.42;;;22.50;26.20;;;;;;5071534;28;20040;-83
2023/05/09 09:45:21;;;;;;;3.60;2.28;;;21.50;26.50;;;;;;5070844;28;20119;-82
2023/05/09 09:47:48;;;;;;;2.78;2.20;;;20.70;26.90;;;;;;5072835;28;20059;-82
2023/05/09 09:50:21;;;;;;;5.70;2.40;;;19.90;27.60;;;;;;5074037;28;20168;-85
2023/05/09 09:52:55;;;;;;;5.88;2.55;;;;;;;;;;5058991;28;20038;-83
2023/05/09 09:55:23;;;;;;;3.45;2.50;;;19.30;28.00;;;;;;5069770;28;20396;-84
2023/05/09 09:57:50;;;;;;;4.43;2.58;;;18.50;28.80;;;;;;5054903;28;20119;-82
2023/05/09 10:00:17;;;;;;;6.32;2.50;;;;;;;;;;5071665;28;20063;-82
2023/05/09 10:02:50;;;;;;;5.15;2.42;;;;;;;;;;5043428;28;20186;-81
2023/05/09 10:05:24;;;;;;;3.67;2.70;;;;;;;;;;5084960;28;20039;-81
2023/05/09 10:08:02;;;;;;;6.45;2.97;;;18.20;28.90;;;;;;5106986;28;20031;-82
2023/05/09 10:10:30;;;;;;;4.43;2.33;;;;;;;;;;5107262;28;20027;-84
2023/05/09 10:12:57;;;;;;;13.93;9.43;;;;;;;;;;5085791;28;20575;-82
2023/05/09 10:15:23;;;;;;;;;;;17.60;29.50;;;;;;5112594;28;20366;-80
2023/05/09 10:17:55;;;;;;;6.15;3.15;;;16.80;30.10;;;;;;5108967;28;19956;-83
2023/05/09 10:20:22;;;;;;;3.70;2.20;;;16.60;30.90;;;;;;5096037;28;20435;-83
2023/05/09 10:22:49;;;;;;;4.20;2.30;;;16.60;30.20;;;;;;5100767;28;20023;-83
2023/05/09 10:25:18;;;;;;;;;;;;;;;;;;5100773;28;20028;-79
2023/05/09 10:27:45;;;;;;;4.05;2.22;;;;;;;;;;5076040;28;20061;-82
2023/05/09 10:30:11;;;;;;;3.15;2.22;;;;;;;;;;5092934;28;20024;-84
2023/05/09 10:32:48;;;;;;;3.47;2.22;;;;;;;;;;5093148;28;20441;-83
2023/05/09 10:35:18;;;;;;;4.85;2.55;;;;;;;;;;5094408;28;20024;-85
2023/05/09 10:37:47;;;;;;;5.70;2.58;;;;;;;;;;5102361;28;20036;-84
2023/05/09 10:40:14;;;;;;;2.78;2.17;;;;;;;;;;5102600;28;20491;-81
2023/05/09 10:42:42;;;;;;;3.35;2.75;;;16.70;30.50;;;;;;5076903;28;20377;-85
2023/05/09 10:45:12;;;;;;;3.20;2.20;;;17.80;29.60;;;;;;5107068;28;20074;-84
2023/05/09 10:47:43;;;;;;;4.53;2.50;;;17.70;29.80;;;;;;5098628;28;20485;-84
2023/05/09 10:50:11;;;;;;;3.25;2.10;;;17.70;29.70;;;;;;5104298;28;20048;-83
2023/05/09 10:53:25;;;;;;;4.47;2.60;;;17.60;29.80;;;;;;5090316;28;20519;-91
2023/05/09 10:56:00;;;;;;;5.00;2.60;;;17.60;29.50;;;;;;5121045;28;20087;-90
2023/05/09 10:58:32;;;;;;;6.75;2.60;;;17.50;29.80;;;;;;5113003;28;20384;-90
2023/05/09 11:01:00;;;;;;;4.22;2.35;;;17.40;29.80;;;;;;5100461;28;20036;-86
2023/05/09 11:03:48;;;;;;;2.80;1.85;;;17.00;30.00;;;;;;5074915;28;20053;-86
2023/05/09 11:06:44;;;;;;;2.90;2.35;;;16.80;30.30;;;;;;5126659;28;20031;-89
2023/05/09 11:09:31;;;;;;;4.40;2.55;;;16.70;30.40;;;;;;5105650;28;20016;-81
2023/05/09 11:12:11;;;;;;;4.50;2.97;;;16.70;30.40;;;;;;5088199;28;20080;-80
2023/05/09 11:14:48;;;;;;;3.10;2.30;;;16.60;30.70;;;;;;5107502;28;20349;-79
2023/05/09 11:17:28;;;;;;;4.07;2.25;;;16.60;31.20;;;;;;5104417;28;20032;-79
2023/05/09 11:19:59;;;;;;;5.03;2.53;;;16.60;30.70;;;;;;5087697;28;20040;-79
2023/05/09 11:22:31;;;;;;;4.03;2.47;;;16.50;30.40;;;;;;5111823;28;20020;-78
2023/05/09 11:25:13;;;;;;;6.72;3.20;;;16.30;31.20;;;;;;5100421;28;20430;-75
2023/05/09 11:27:48;;;;;;;5.28;3.17;;;16.00;30.80;;;;;;5110975;28;20388;-79
2023/05/09 11:30:15;;;;;;;4.55;2.42;;;15.90;31.30;;;;;;5088590;28;20072;-79
2023/05/09 11:32:57;;;;;;;4.53;2.78;;;15.80;31.00;;;;;;5100218;28;20401;-88
2023/05/09 11:35:25;;;;;;;4.20;2.70;;;15.80;31.70;;;;;;5114376;28;20019;-87
2023/05/09 11:38:05;;;;;;;5.75;2.50;;;15.90;31.40;;;;;;5087713;28;20028;-88
2023/05/09 11:40:33;;;;;;;3.42;2.58;;;16.00;31.30;;;;;;5105411;28;20028;-88
2023/05/09 11:42:59;;;;;;;;;;;16.00;31.00;;;;;;5112763;28;20101;-87
2023/05/09 11:45:29;;;;;;;4.43;2.33;;;16.00;31.10;;;;;;5101669;28;19911;-88
2023/05/09 11:47:56;;;;;;;3.45;2.38;;;15.90;31.40;;;;;;5109685;28;20135;-87
2023/05/09 11:50:22;;;;;;;3.25;2.80;;;15.90;31.30;;;;;;5111085;28;20402;-87
2023/05/09 11:52:49;;;;;;;5.00;2.80;;;15.90;31.20;;;;;;5083908;28;20032;-86
2023/05/09 11:55:17;;;;;;;4.50;3.13;;;15.90;31.50;;;;;;5100537;28;20042;-86
2023/05/09 11:57:46;;;;;;;4.38;2.70;;;16.00;31.40;;;;;;5102138;28;20533;-86
2023/05/09 12:00:14;;;;;;;5.90;3.00;;;15.90;31.40;;;;;;5103372;28;20109;-87
2023/05/09 12:02:43;;;;;;;4.22;2.50;;;15.80;31.40;;;;;;5100585;28;20068;-85
2023/05/09 12:05:14;;;;;;;6.50;2.90;;;15.80;31.50;;;;;;5104824;28;20031;-85
2023/05/09 12:07:41;;;;;;;9.68;5.30;;;15.70;31.80;;;;;;5116455;28;20541;-85
2023/05/09 12:10:11;;;;;;;5.63;2.65;;;15.80;32.20;;;;;;5104633;28;20039;-86
2023/05/09 12:12:47;;;;;;;5.82;2.80;;;15.90;31.60;;;;;;5104576;28;20024;-85
2023/05/09 12:15:13;;;;;;;4.68;2.65;;;15.90;32.10;;;;;;5101944;28;20356;-87
2023/05/09 12:17:40;;;;;;;4.57;2.78;;;15.90;31.30;;;;;;5097273;28;20096;-83
2023/05/09 12:20:07;;;;;;;3.33;2.20;;;15.90;31.50;;;;;;5097497;28;20389;-84
2023/05/09 12:22:38;;;;;;;3.72;2.83;;;15.80;31.30;;;;;;5081521;28;20434;-86
2023/05/09 12:25:06;;;;;;;6.93;3.03;;;15.70;31.70;;;;;;5106870;28;20035;-86
2023/05/09 12:27:34;;;;;;;4.38;2.47;;;15.70;31.60;;;;;;5109887;28;20026;-85
2023/05/09 12:30:00;;;;;;;3.78;2.50;;;15.70;32.10;;;;;;5110639;28;20063;-85
2023/05/09 12:32:31;;;;;;;2.97;2.47;;;15.60;31.40;;;;;;5104310;28;20532;-86
2023/05/09 12:34:58;;;;;;;6.95;3.30;;;15.60;31.20;;;;;;5113169;28;20019;-88
2023/05/09 12:37:25;;;;;;;3.58;2.58;;;15.60;31.50;;;;;;5106555;28;20016;-87
2023/05/09 12:40:01;;;;;;;3.17;2.85;;;15.60;31.50;;;;;;5111332;28;20047;-86
2023/05/09 12:42:31;;;;;;;5.63;2.97;;;15.60;31.60;;;;;;5089619;28;20020;-85
2023/05/09 12:44:57;;;;;;;4.43;2.70;;;15.70;32.10;;;;;;5116199;28;20108;-83
2023/05/09 12:47:29;;;;;;;5.57;2.78;;;15.80;31.90;;;;;;5122572;28;20083;-84
2023/05/09 12:49:59;;;;;;;7.13;3.03;;;15.80;31.60;;;;;;5117855;28;20465;-83
2023/05/09 12:52:40;;;;;;;9.25;3.58;;;15.90;31.50;;;;;;5092434;28;20027;-85
2023/05/09 12:55:07;;;;;;;7.70;2.53;;;15.90;31.60;;;;;;5114217;28;20032;-87